createdAt,value
2022-12-03T00:01:26.161Z,26.00
2022-12-03T00:06:27.981Z,30.20
2022-12-03T00:11:27.040Z,28.20
2022-12-03T00:16:26.047Z,28.10
2022-12-03T00:21:25.973Z,28.90
2022-12-03T00:26:26.002Z,31.40
2022-12-03T00:31:25.903Z,27.50
2022-12-03T00:36:25.762Z,28.20
2022-12-03T00:41:25.811Z,28.10
2022-12-03T00:46:25.811Z,31.00
2022-12-03T00:51:25.656Z,28.40
2022-12-03T00:56:25.549Z,31.90
2022-12-03T01:01:27.713Z,29.70
2022-12-03T01:06:25.634Z,29.50
2022-12-03T01:11:25.539Z,28.00
2022-12-03T01:16:25.404Z,29.90
2022-12-03T01:21:25.329Z,30.20
2022-12-03T01:26:25.268Z,30.40
2022-12-03T01:31:25.254Z,28.40
2022-12-03T01:36:25.120Z,28.60
2022-12-03T01:41:25.078Z,28.90
2022-12-03T01:46:25.100Z,29.80
2022-12-03T01:51:24.976Z,27.20
2022-12-03T01:56:24.941Z,30.30
2022-12-03T02:01:24.960Z,26.40
2022-12-03T02:06:24.801Z,28.00
2022-12-03T02:11:24.789Z,27.00
2022-12-03T02:16:24.954Z,29.10
2022-12-03T02:21:26.769Z,28.70
2022-12-03T02:26:24.728Z,28.10
2022-12-03T02:31:24.739Z,28.60
2022-12-03T02:36:24.619Z,29.00
2022-12-03T02:41:24.451Z,31.00
2022-12-03T02:46:24.423Z,31.10
2022-12-03T02:51:24.408Z,30.20
2022-12-03T02:56:24.274Z,33.50
2022-12-03T03:01:24.300Z,29.70
2022-12-03T03:06:24.194Z,34.60
2022-12-03T03:11:24.098Z,33.20
2022-12-03T03:16:24.188Z,32.90
2022-12-03T03:21:24.027Z,40.60
2022-12-03T03:26:23.942Z,35.90
2022-12-03T03:31:23.960Z,33.80
2022-12-03T03:36:23.876Z,37.90
2022-12-03T03:41:23.778Z,34.50
2022-12-03T03:46:23.863Z,38.90
2022-12-03T03:51:23.698Z,40.20
2022-12-03T03:56:23.702Z,42.00
2022-12-03T04:01:23.689Z,39.00
2022-12-03T04:06:23.525Z,38.50
2022-12-03T04:11:23.501Z,36.70
2022-12-03T04:16:23.616Z,44.50
2022-12-03T04:21:23.481Z,51.50
2022-12-03T04:26:23.417Z,49.30
2022-12-03T04:31:23.387Z,47.50
2022-12-03T04:36:23.305Z,45.90
2022-12-03T04:41:23.320Z,46.30
2022-12-03T04:46:23.134Z,40.00
2022-12-03T04:51:23.025Z,42.50
2022-12-03T04:56:25.078Z,44.10
2022-12-03T05:01:23.026Z,47.10
2022-12-03T05:06:22.871Z,48.20
2022-12-03T05:11:22.980Z,41.40
2022-12-03T05:16:22.852Z,45.90
2022-12-03T05:21:23.208Z,43.90
2022-12-03T05:26:22.695Z,44.50
2022-12-03T05:31:22.805Z,43.20
2022-12-03T05:36:22.562Z,47.10
2022-12-03T05:41:22.548Z,45.90
2022-12-03T05:46:22.582Z,45.50
2022-12-03T05:51:22.418Z,46.30
2022-12-03T05:56:22.356Z,47.30
2022-12-03T06:01:22.496Z,44.90
2022-12-03T06:06:22.326Z,45.60
2022-12-03T06:11:22.311Z,48.00
2022-12-03T06:16:31.150Z,51.40
2022-12-03T06:21:22.095Z,52.70
2022-12-03T06:26:22.048Z,45.30
2022-12-03T06:31:22.097Z,43.60
2022-12-03T06:36:23.422Z,50.70
2022-12-03T06:41:21.992Z,51.60
2022-12-03T06:46:22.015Z,49.30
2022-12-03T06:51:21.905Z,47.10
2022-12-03T06:56:22.603Z,48.70
2022-12-03T07:01:21.726Z,43.90
2022-12-03T07:06:21.812Z,53.80
2022-12-03T07:11:21.833Z,46.10
2022-12-03T07:16:23.053Z,46.80
2022-12-03T07:21:21.787Z,41.40
2022-12-03T07:26:21.658Z,44.70
2022-12-03T07:31:21.762Z,44.70
2022-12-03T07:36:21.529Z,43.30
2022-12-03T07:41:21.344Z,42.80
2022-12-03T07:46:21.539Z,42.80
2022-12-03T07:51:21.114Z,37.90
2022-12-03T07:56:21.084Z,45.50
2022-12-03T08:01:21.104Z,43.70
2022-12-03T08:06:21.004Z,45.30
2022-12-03T08:11:20.929Z,42.40
2022-12-03T08:16:20.986Z,45.40
2022-12-03T08:21:20.869Z,43.70
2022-12-03T08:26:20.813Z,45.30
2022-12-03T08:31:20.857Z,43.70
2022-12-03T08:36:20.697Z,41.30
2022-12-03T08:41:20.676Z,42.90
2022-12-03T08:46:20.662Z,44.10
2022-12-03T08:51:20.612Z,43.60
2022-12-03T08:56:20.456Z,42.80
2022-12-03T09:01:20.464Z,44.00
2022-12-03T09:06:20.434Z,41.00
2022-12-03T09:11:20.291Z,42.00
2022-12-03T09:16:20.412Z,41.30
2022-12-03T09:21:20.247Z,41.30
2022-12-03T09:26:20.209Z,41.40
2022-12-03T09:31:20.158Z,39.20
2022-12-03T09:36:20.026Z,38.30
2022-12-03T09:41:19.978Z,40.30
2022-12-03T09:46:19.990Z,42.70
2022-12-03T09:51:19.869Z,36.30
2022-12-03T09:56:19.827Z,37.80
2022-12-03T10:01:19.801Z,39.60
2022-12-03T10:06:19.669Z,35.30
2022-12-03T10:11:19.667Z,38.00
2022-12-03T10:16:19.636Z,38.40
2022-12-03T10:21:19.517Z,37.40
2022-12-03T10:26:19.463Z,37.50
2022-12-03T10:31:19.498Z,36.90
2022-12-03T10:36:19.372Z,46.30
2022-12-03T10:41:19.408Z,38.60
2022-12-03T10:46:19.421Z,35.40
2022-12-03T10:51:19.232Z,41.30
2022-12-03T10:56:19.158Z,41.00
2022-12-03T11:01:19.159Z,46.30
2022-12-03T11:06:19.039Z,42.40
2022-12-03T11:11:18.968Z,46.10
2022-12-03T11:16:19.086Z,45.00
2022-12-03T11:21:18.939Z,44.10
2022-12-03T11:26:19.747Z,42.20
2022-12-03T11:31:18.800Z,44.30
2022-12-03T11:36:31.726Z,43.10
2022-12-03T11:41:19.778Z,41.30
2022-12-03T11:46:18.717Z,48.50
2022-12-03T11:51:18.578Z,44.00
2022-12-03T11:56:18.542Z,42.90
2022-12-03T12:01:18.464Z,40.40
2022-12-03T12:06:18.392Z,36.40
2022-12-03T12:11:18.383Z,35.10
2022-12-03T12:16:27.217Z,32.80
2022-12-03T12:21:18.245Z,36.20
2022-12-03T12:26:18.156Z,34.10
2022-12-03T12:31:18.163Z,32.50
2022-12-03T12:36:18.065Z,37.90
2022-12-03T12:41:18.028Z,36.50
2022-12-03T12:46:48.468Z,37.10
2022-12-03T12:51:18.968Z,45.60
2022-12-03T12:56:17.888Z,45.30
2022-12-03T13:01:18.060Z,40.20
2022-12-03T13:06:17.795Z,45.60
2022-12-03T13:11:17.697Z,42.90
2022-12-03T13:16:18.824Z,51.70
2022-12-03T13:21:17.685Z,57.30
2022-12-03T13:26:31.696Z,38.70
2022-12-03T13:31:18.628Z,42.90
2022-12-03T13:36:17.494Z,44.40
2022-12-03T13:41:17.333Z,43.50
2022-12-03T13:46:17.370Z,42.90
2022-12-03T13:51:17.248Z,45.80
2022-12-03T13:56:17.212Z,43.10
2022-12-03T14:01:17.287Z,43.30
2022-12-03T14:06:17.103Z,44.30
2022-12-03T14:11:17.027Z,45.80
2022-12-03T14:16:17.101Z,37.90
2022-12-03T14:21:16.956Z,43.40
2022-12-03T14:26:16.971Z,44.10
2022-12-03T14:31:16.882Z,42.40
2022-12-03T14:36:16.781Z,46.60
2022-12-03T14:41:16.830Z,46.20
2022-12-03T14:46:16.812Z,47.30
2022-12-03T14:51:16.693Z,46.10
2022-12-03T14:56:16.616Z,41.70
2022-12-03T15:01:16.525Z,45.00
2022-12-03T15:06:16.461Z,48.30
2022-12-03T15:11:16.411Z,46.80
2022-12-03T15:16:16.376Z,44.20
2022-12-03T15:21:16.264Z,43.40
2022-12-03T15:26:16.367Z,44.70
2022-12-03T15:31:16.379Z,44.90
2022-12-03T15:36:16.113Z,43.70
2022-12-03T15:41:16.127Z,47.90
2022-12-03T15:46:17.050Z,43.00
2022-12-03T15:51:15.995Z,43.50
2022-12-03T15:56:15.923Z,41.10
2022-12-03T16:01:15.926Z,41.90
2022-12-03T16:06:15.812Z,46.50
2022-12-03T16:11:15.751Z,44.70
2022-12-03T16:16:15.725Z,56.90
2022-12-03T16:21:15.664Z,45.90
2022-12-03T16:26:15.594Z,47.00
2022-12-03T16:31:15.600Z,43.20
2022-12-03T16:36:15.498Z,42.70
2022-12-03T16:41:15.542Z,47.60
2022-12-03T16:46:15.557Z,40.80
2022-12-03T16:51:15.375Z,41.30
2022-12-03T16:56:15.326Z,44.40
2022-12-03T17:01:15.341Z,44.30
2022-12-03T17:06:15.190Z,42.00
2022-12-03T17:11:15.203Z,43.20
2022-12-03T17:16:15.240Z,44.80
2022-12-03T17:21:15.192Z,44.30
2022-12-03T17:26:14.978Z,44.50
2022-12-03T17:31:14.971Z,40.50
2022-12-03T17:36:14.855Z,43.70
2022-12-03T17:41:14.769Z,45.10
2022-12-03T17:46:14.823Z,54.20
2022-12-03T17:51:14.793Z,42.20
2022-12-03T17:56:14.735Z,48.70
2022-12-03T18:01:15.708Z,44.00
2022-12-03T18:06:14.609Z,42.00
2022-12-03T18:11:14.478Z,41.20
2022-12-03T18:16:14.532Z,40.60
2022-12-03T18:21:14.462Z,42.60
2022-12-03T18:26:14.321Z,44.90
2022-12-03T18:31:14.494Z,52.80
2022-12-03T18:36:15.091Z,46.30
2022-12-03T18:41:14.294Z,50.00
2022-12-03T18:46:31.226Z,63.80
2022-12-03T18:51:15.102Z,48.40
2022-12-03T18:56:13.950Z,41.00
2022-12-03T19:01:14.037Z,40.70
2022-12-03T19:06:17.248Z,43.30
2022-12-03T19:11:14.855Z,40.40
2022-12-03T19:16:13.757Z,44.00
2022-12-03T19:21:13.731Z,43.40
2022-12-03T19:26:13.653Z,43.00
2022-12-03T19:31:13.631Z,45.60
2022-12-03T19:36:13.553Z,45.70
2022-12-03T19:41:13.536Z,43.30
2022-12-03T19:46:13.615Z,45.70
2022-12-03T19:51:33.725Z,44.20
2022-12-03T19:56:14.438Z,50.40
2022-12-03T20:01:13.318Z,45.50
2022-12-03T20:06:13.232Z,50.00
2022-12-03T20:11:13.254Z,51.60
2022-12-03T20:16:13.220Z,48.40
2022-12-03T20:21:13.154Z,52.00
2022-12-03T20:26:13.057Z,42.60
2022-12-03T20:31:13.101Z,44.70
2022-12-03T20:36:12.920Z,46.30
2022-12-03T20:41:12.873Z,42.30
2022-12-03T20:46:12.881Z,47.70
2022-12-03T20:51:12.785Z,48.30
2022-12-03T20:56:12.679Z,49.60
2022-12-03T21:01:15.952Z,48.70
2022-12-03T21:06:12.591Z,48.20
2022-12-03T21:11:14.572Z,51.10
2022-12-03T21:16:13.630Z,83.30
2022-12-03T21:21:12.420Z,52.70
2022-12-03T21:26:12.370Z,50.80
2022-12-03T21:31:12.431Z,55.00
2022-12-03T21:36:12.306Z,56.50
2022-12-03T21:41:12.248Z,52.30
2022-12-03T21:47:09.315Z,52.60
2022-12-03T21:51:13.272Z,53.00
2022-12-03T21:56:12.130Z,54.60
2022-12-03T22:01:12.075Z,59.00
2022-12-03T22:06:15.430Z,54.00
2022-12-03T22:11:12.452Z,55.90
2022-12-03T22:16:11.886Z,58.70
2022-12-03T22:21:11.797Z,58.00
2022-12-03T22:26:11.751Z,55.10
2022-12-03T22:31:11.711Z,56.20
2022-12-03T22:36:18.021Z,57.50
2022-12-03T22:41:12.562Z,56.80
2022-12-03T22:46:11.547Z,60.80
2022-12-03T22:51:11.466Z,58.30
2022-12-03T22:56:11.530Z,58.60
2022-12-03T23:01:11.459Z,56.30
2022-12-03T23:06:11.399Z,53.70
2022-12-03T23:11:11.346Z,56.80
2022-12-03T23:16:11.247Z,56.80
2022-12-03T23:21:11.203Z,54.70
2022-12-03T23:26:11.139Z,55.10
2022-12-03T23:31:11.295Z,56.90
2022-12-03T23:36:11.004Z,63.70
2022-12-03T23:41:10.923Z,56.80
2022-12-03T23:46:10.919Z,57.70
2022-12-03T23:51:10.799Z,55.30
2022-12-03T23:56:10.757Z,59.50
